Terminal Aerodrome Forecast
Issued by NWS

Home | Current Version | Previous Version | Text Only | Print | Product List | Glossary On
Versions: 1 2 3 4 5 6 7 8 9 10 11 12
000
FTPQ31 PGUM 221208 RRA
TAFGSN
TAF
PGSN 221208Z 2212/2312 07011KT P6SM VCSH SCT025 SCT050
     FM222300 07014G20KT P6SM VCSH SCT025 SCT050=

USA.gov is the U.S. government's official web portal to all federal, state and local government web resources and services.